sensor_id;sensor_type;location;lat;lon;timestamp;P1;durP1;ratioP1;P2;durP2;ratioP2
22774;SDS011;11554;51.106;3.684;2022-07-12T00:00:00;8.10;;;5.60;;
22774;SDS011;11554;51.106;3.684;2022-07-12T00:05:00;8.10;;;5.60;;
22774;SDS011;11554;51.106;3.684;2022-07-12T00:10:00;7.60;;;5.60;;
22774;SDS011;11554;51.106;3.684;2022-07-12T00:15:00;7.60;;;5.60;;
22774;SDS011;11554;51.106;3.684;2022-07-12T00:20:00;8.60;;;5.60;;
22774;SDS011;11554;51.106;3.684;2022-07-12T00:25:00;8.60;;;5.60;;
22774;SDS011;11554;51.106;3.684;2022-07-12T00:30:00;7.30;;;5.40;;
22774;SDS011;11554;51.106;3.684;2022-07-12T00:35:00;7.30;;;5.40;;
22774;SDS011;11554;51.106;3.684;2022-07-12T00:40:00;6.90;;;5.50;;
22774;SDS011;11554;51.106;3.684;2022-07-12T00:45:01;6.90;;;5.50;;
22774;SDS011;11554;51.106;3.684;2022-07-12T00:50:00;8.30;;;5.40;;
22774;SDS011;11554;51.106;3.684;2022-07-12T00:55:01;8.30;;;5.40;;
22774;SDS011;11554;51.106;3.684;2022-07-12T01:00:00;8.30;;;5.60;;
22774;SDS011;11554;51.106;3.684;2022-07-12T01:05:00;8.30;;;5.60;;
22774;SDS011;11554;51.106;3.684;2022-07-12T01:10:01;9.40;;;5.40;;
22774;SDS011;11554;51.106;3.684;2022-07-12T01:15:01;9.40;;;5.40;;
22774;SDS011;11554;51.106;3.684;2022-07-12T01:20:01;8.70;;;5.80;;
22774;SDS011;11554;51.106;3.684;2022-07-12T01:25:02;8.70;;;5.80;;
22774;SDS011;11554;51.106;3.684;2022-07-12T01:30:01;9.90;;;7.40;;
22774;SDS011;11554;51.106;3.684;2022-07-12T01:35:01;9.90;;;7.40;;
22774;SDS011;11554;51.106;3.684;2022-07-12T01:40:02;7.50;;;6.10;;
22774;SDS011;11554;51.106;3.684;2022-07-12T01:45:00;7.50;;;6.10;;
22774;SDS011;11554;51.106;3.684;2022-07-12T01:50:00;7.70;;;5.50;;
22774;SDS011;11554;51.106;3.684;2022-07-12T01:55:00;7.70;;;5.50;;
22774;SDS011;11554;51.106;3.684;2022-07-12T02:00:02;9.40;;;7.50;;
22774;SDS011;11554;51.106;3.684;2022-07-12T02:05:00;9.40;;;7.50;;
22774;SDS011;11554;51.106;3.684;2022-07-12T02:10:00;8.90;;;7.40;;
22774;SDS011;11554;51.106;3.684;2022-07-12T02:15:00;8.90;;;7.40;;
22774;SDS011;11554;51.106;3.684;2022-07-12T02:20:00;10.80;;;6.90;;
22774;SDS011;11554;51.106;3.684;2022-07-12T02:25:00;10.80;;;6.90;;
22774;SDS011;11554;51.106;3.684;2022-07-12T02:30:00;8.50;;;5.70;;
22774;SDS011;11554;51.106;3.684;2022-07-12T02:35:01;8.50;;;5.70;;
22774;SDS011;11554;51.106;3.684;2022-07-12T02:40:00;7.70;;;6.20;;
22774;SDS011;11554;51.106;3.684;2022-07-12T02:45:00;7.70;;;6.20;;
22774;SDS011;11554;51.106;3.684;2022-07-12T02:50:01;6.30;;;5.50;;
22774;SDS011;11554;51.106;3.684;2022-07-12T02:55:00;6.30;;;5.50;;
22774;SDS011;11554;51.106;3.684;2022-07-12T03:00:00;6.80;;;6.10;;
22774;SDS011;11554;51.106;3.684;2022-07-12T03:05:00;6.80;;;6.10;;
22774;SDS011;11554;51.106;3.684;2022-07-12T03:10:00;9.80;;;7.10;;
22774;SDS011;11554;51.106;3.684;2022-07-12T03:15:00;9.80;;;7.10;;
22774;SDS011;11554;51.106;3.684;2022-07-12T03:20:00;7.60;;;6.80;;
22774;SDS011;11554;51.106;3.684;2022-07-12T03:25:00;7.60;;;6.80;;
22774;SDS011;11554;51.106;3.684;2022-07-12T03:30:00;9.20;;;6.90;;
22774;SDS011;11554;51.106;3.684;2022-07-12T03:35:00;9.20;;;6.90;;
22774;SDS011;11554;51.106;3.684;2022-07-12T03:40:00;8.50;;;6.70;;
22774;SDS011;11554;51.106;3.684;2022-07-12T03:45:00;8.50;;;6.70;;
22774;SDS011;11554;51.106;3.684;2022-07-12T03:50:00;6.20;;;5.00;;
22774;SDS011;11554;51.106;3.684;2022-07-12T03:55:00;6.20;;;5.00;;
22774;SDS011;11554;51.106;3.684;2022-07-12T04:00:00;7.90;;;6.00;;
22774;SDS011;11554;51.106;3.684;2022-07-12T04:05:00;7.90;;;6.00;;
22774;SDS011;11554;51.106;3.684;2022-07-12T04:10:00;10.00;;;6.90;;
22774;SDS011;11554;51.106;3.684;2022-07-12T04:15:00;10.00;;;6.90;;
22774;SDS011;11554;51.106;3.684;2022-07-12T04:20:00;11.80;;;8.00;;
22774;SDS011;11554;51.106;3.684;2022-07-12T04:25:00;11.80;;;8.00;;
22774;SDS011;11554;51.106;3.684;2022-07-12T04:30:01;10.10;;;7.80;;
22774;SDS011;11554;51.106;3.684;2022-07-12T04:35:00;10.10;;;7.80;;
22774;SDS011;11554;51.106;3.684;2022-07-12T04:40:00;10.20;;;7.60;;
22774;SDS011;11554;51.106;3.684;2022-07-12T04:45:00;10.20;;;7.60;;
22774;SDS011;11554;51.106;3.684;2022-07-12T04:50:03;10.30;;;8.20;;
22774;SDS011;11554;51.106;3.684;2022-07-12T04:55:00;10.30;;;8.20;;
22774;SDS011;11554;51.106;3.684;2022-07-12T05:00:00;9.80;;;7.60;;
22774;SDS011;11554;51.106;3.684;2022-07-12T05:05:00;9.80;;;7.60;;
22774;SDS011;11554;51.106;3.684;2022-07-12T05:10:00;11.10;;;8.10;;
22774;SDS011;11554;51.106;3.684;2022-07-12T05:15:00;11.10;;;8.10;;
22774;SDS011;11554;51.106;3.684;2022-07-12T05:20:00;9.00;;;7.00;;
22774;SDS011;11554;51.106;3.684;2022-07-12T05:25:00;9.00;;;7.00;;
22774;SDS011;11554;51.106;3.684;2022-07-12T05:30:00;10.70;;;7.90;;
22774;SDS011;11554;51.106;3.684;2022-07-12T05:35:00;10.70;;;7.90;;
22774;SDS011;11554;51.106;3.684;2022-07-12T05:40:00;9.10;;;6.90;;
22774;SDS011;11554;51.106;3.684;2022-07-12T05:45:00;9.10;;;6.90;;
22774;SDS011;11554;51.106;3.684;2022-07-12T05:50:00;10.50;;;7.50;;
22774;SDS011;11554;51.106;3.684;2022-07-12T05:55:00;10.50;;;7.50;;
22774;SDS011;11554;51.106;3.684;2022-07-12T06:00:00;10.60;;;8.00;;
22774;SDS011;11554;51.106;3.684;2022-07-12T06:05:00;10.60;;;8.00;;
22774;SDS011;11554;51.106;3.684;2022-07-12T06:10:00;9.30;;;7.30;;
22774;SDS011;11554;51.106;3.684;2022-07-12T06:15:00;9.30;;;7.30;;
22774;SDS011;11554;51.106;3.684;2022-07-12T06:20:00;10.40;;;7.80;;
22774;SDS011;11554;51.106;3.684;2022-07-12T06:25:00;10.40;;;7.80;;
22774;SDS011;11554;51.106;3.684;2022-07-12T06:30:01;11.50;;;6.90;;
22774;SDS011;11554;51.106;3.684;2022-07-12T06:35:00;11.50;;;6.90;;
22774;SDS011;11554;51.106;3.684;2022-07-12T06:40:00;10.00;;;6.00;;
22774;SDS011;11554;51.106;3.684;2022-07-12T06:45:00;10.00;;;6.00;;
22774;SDS011;11554;51.106;3.684;2022-07-12T06:50:00;7.30;;;5.20;;
22774;SDS011;11554;51.106;3.684;2022-07-12T06:55:00;7.30;;;5.20;;
22774;SDS011;11554;51.106;3.684;2022-07-12T07:00:00;8.00;;;4.70;;
22774;SDS011;11554;51.106;3.684;2022-07-12T07:05:00;8.00;;;4.70;;
22774;SDS011;11554;51.106;3.684;2022-07-12T07:10:00;5.60;;;4.10;;
22774;SDS011;11554;51.106;3.684;2022-07-12T07:15:00;5.60;;;4.10;;
22774;SDS011;11554;51.106;3.684;2022-07-12T07:20:00;7.70;;;4.20;;
22774;SDS011;11554;51.106;3.684;2022-07-12T07:25:00;7.70;;;4.20;;
22774;SDS011;11554;51.106;3.684;2022-07-12T07:30:00;9.60;;;4.00;;
22774;SDS011;11554;51.106;3.684;2022-07-12T07:35:00;9.60;;;4.00;;
22774;SDS011;11554;51.106;3.684;2022-07-12T07:40:00;7.10;;;3.90;;
22774;SDS011;11554;51.106;3.684;2022-07-12T07:45:00;7.10;;;3.90;;
22774;SDS011;11554;51.106;3.684;2022-07-12T07:50:00;6.50;;;3.80;;
22774;SDS011;11554;51.106;3.684;2022-07-12T07:55:00;6.50;;;3.80;;
22774;SDS011;11554;51.106;3.684;2022-07-12T08:00:00;7.50;;;3.80;;
22774;SDS011;11554;51.106;3.684;2022-07-12T08:05:00;7.50;;;3.80;;
22774;SDS011;11554;51.106;3.684;2022-07-12T08:10:00;7.30;;;4.00;;
22774;SDS011;11554;51.106;3.684;2022-07-12T08:15:00;7.30;;;4.00;;
22774;SDS011;11554;51.106;3.684;2022-07-12T08:20:00;6.40;;;3.40;;
22774;SDS011;11554;51.106;3.684;2022-07-12T08:25:00;6.40;;;3.40;;
22774;SDS011;11554;51.106;3.684;2022-07-12T08:30:00;7.30;;;3.60;;
22774;SDS011;11554;51.106;3.684;2022-07-12T08:35:00;7.30;;;3.60;;
22774;SDS011;11554;51.106;3.684;2022-07-12T08:40:00;8.10;;;3.40;;
22774;SDS011;11554;51.106;3.684;2022-07-12T08:45:00;8.10;;;3.40;;
22774;SDS011;11554;51.106;3.684;2022-07-12T08:50:11;6.20;;;3.30;;
22774;SDS011;11554;51.106;3.684;2022-07-12T08:55:00;6.20;;;3.30;;
22774;SDS011;11554;51.106;3.684;2022-07-12T09:00:00;5.60;;;3.60;;
22774;SDS011;11554;51.106;3.684;2022-07-12T09:05:06;5.60;;;3.60;;
22774;SDS011;11554;51.106;3.684;2022-07-12T09:10:03;6.70;;;3.00;;
22774;SDS011;11554;51.106;3.684;2022-07-12T09:15:10;6.70;;;3.00;;
22774;SDS011;11554;51.106;3.684;2022-07-12T09:20:00;5.40;;;3.00;;
22774;SDS011;11554;51.106;3.684;2022-07-12T09:25:08;5.40;;;3.00;;
22774;SDS011;11554;51.106;3.684;2022-07-12T09:30:00;4.20;;;3.00;;
22774;SDS011;11554;51.106;3.684;2022-07-12T09:35:00;4.20;;;3.00;;
22774;SDS011;11554;51.106;3.684;2022-07-12T09:40:00;6.30;;;3.40;;
22774;SDS011;11554;51.106;3.684;2022-07-12T09:45:00;6.30;;;3.40;;
22774;SDS011;11554;51.106;3.684;2022-07-12T09:50:00;6.00;;;3.20;;
22774;SDS011;11554;51.106;3.684;2022-07-12T09:55:02;6.00;;;3.20;;
22774;SDS011;11554;51.106;3.684;2022-07-12T10:00:02;7.60;;;3.40;;
22774;SDS011;11554;51.106;3.684;2022-07-12T10:05:01;7.60;;;3.40;;
22774;SDS011;11554;51.106;3.684;2022-07-12T10:10:00;4.40;;;3.00;;
22774;SDS011;11554;51.106;3.684;2022-07-12T10:15:03;4.40;;;3.00;;
22774;SDS011;11554;51.106;3.684;2022-07-12T10:20:14;7.60;;;3.20;;
22774;SDS011;11554;51.106;3.684;2022-07-12T10:25:00;7.60;;;3.20;;
22774;SDS011;11554;51.106;3.684;2022-07-12T10:30:12;3.90;;;2.70;;
22774;SDS011;11554;51.106;3.684;2022-07-12T10:35:02;3.90;;;2.70;;
22774;SDS011;11554;51.106;3.684;2022-07-12T10:40:11;2.90;;;1.80;;
22774;SDS011;11554;51.106;3.684;2022-07-12T10:45:11;2.90;;;1.80;;
22774;SDS011;11554;51.106;3.684;2022-07-12T10:50:00;6.70;;;2.40;;
22774;SDS011;11554;51.106;3.684;2022-07-12T10:55:17;6.70;;;2.40;;
22774;SDS011;11554;51.106;3.684;2022-07-12T11:00:00;4.20;;;2.10;;
22774;SDS011;11554;51.106;3.684;2022-07-12T11:05:00;4.20;;;2.10;;
22774;SDS011;11554;51.106;3.684;2022-07-12T11:10:00;3.20;;;1.90;;
22774;SDS011;11554;51.106;3.684;2022-07-12T11:15:01;3.20;;;1.90;;
22774;SDS011;11554;51.106;3.684;2022-07-12T11:20:09;3.50;;;1.40;;
22774;SDS011;11554;51.106;3.684;2022-07-12T11:25:01;3.50;;;1.40;;
22774;SDS011;11554;51.106;3.684;2022-07-12T11:30:00;8.70;;;2.10;;
22774;SDS011;11554;51.106;3.684;2022-07-12T11:35:00;8.70;;;2.10;;
22774;SDS011;11554;51.106;3.684;2022-07-12T11:40:00;7.70;;;1.90;;
22774;SDS011;11554;51.106;3.684;2022-07-12T11:45:00;7.70;;;1.90;;
22774;SDS011;11554;51.106;3.684;2022-07-12T11:50:00;3.00;;;1.40;;
22774;SDS011;11554;51.106;3.684;2022-07-12T11:55:06;3.00;;;1.40;;
22774;SDS011;11554;51.106;3.684;2022-07-12T12:00:18;3.50;;;1.20;;
22774;SDS011;11554;51.106;3.684;2022-07-12T12:05:00;3.50;;;1.20;;
22774;SDS011;11554;51.106;3.684;2022-07-12T12:10:03;5.40;;;1.70;;
22774;SDS011;11554;51.106;3.684;2022-07-12T12:15:02;5.40;;;1.70;;
22774;SDS011;11554;51.106;3.684;2022-07-12T12:20:08;6.60;;;1.60;;
22774;SDS011;11554;51.106;3.684;2022-07-12T12:25:00;6.60;;;1.60;;
22774;SDS011;11554;51.106;3.684;2022-07-12T12:30:04;4.00;;;1.30;;
22774;SDS011;11554;51.106;3.684;2022-07-12T12:35:08;4.00;;;1.30;;
22774;SDS011;11554;51.106;3.684;2022-07-12T12:40:00;3.50;;;1.30;;
22774;SDS011;11554;51.106;3.684;2022-07-12T12:45:00;3.50;;;1.30;;
22774;SDS011;11554;51.106;3.684;2022-07-12T12:50:00;3.30;;;1.20;;
22774;SDS011;11554;51.106;3.684;2022-07-12T12:55:00;3.30;;;1.20;;
22774;SDS011;11554;51.106;3.684;2022-07-12T13:00:00;4.00;;;1.30;;
22774;SDS011;11554;51.106;3.684;2022-07-12T13:05:00;4.00;;;1.30;;
22774;SDS011;11554;51.106;3.684;2022-07-12T13:10:00;2.20;;;1.00;;
22774;SDS011;11554;51.106;3.684;2022-07-12T13:15:00;2.20;;;1.00;;
22774;SDS011;11554;51.106;3.684;2022-07-12T13:20:00;1.90;;;1.10;;
22774;SDS011;11554;51.106;3.684;2022-07-12T13:25:00;1.90;;;1.10;;
22774;SDS011;11554;51.106;3.684;2022-07-12T13:30:00;2.70;;;1.10;;
22774;SDS011;11554;51.106;3.684;2022-07-12T13:35:00;2.70;;;1.10;;
22774;SDS011;11554;51.106;3.684;2022-07-12T13:40:00;2.90;;;1.20;;
22774;SDS011;11554;51.106;3.684;2022-07-12T13:45:00;2.90;;;1.20;;
22774;SDS011;11554;51.106;3.684;2022-07-12T13:50:00;1.80;;;1.10;;
22774;SDS011;11554;51.106;3.684;2022-07-12T13:55:00;1.80;;;1.10;;
22774;SDS011;11554;51.106;3.684;2022-07-12T14:00:00;2.30;;;1.10;;
22774;SDS011;11554;51.106;3.684;2022-07-12T14:05:00;2.30;;;1.10;;
22774;SDS011;11554;51.106;3.684;2022-07-12T14:10:00;2.00;;;0.90;;
22774;SDS011;11554;51.106;3.684;2022-07-12T14:15:00;2.00;;;0.90;;
22774;SDS011;11554;51.106;3.684;2022-07-12T14:20:00;1.70;;;1.00;;
22774;SDS011;11554;51.106;3.684;2022-07-12T14:25:00;1.70;;;1.00;;
22774;SDS011;11554;51.106;3.684;2022-07-12T14:30:00;2.50;;;1.10;;
22774;SDS011;11554;51.106;3.684;2022-07-12T14:35:00;2.50;;;1.10;;
22774;SDS011;11554;51.106;3.684;2022-07-12T14:40:00;4.20;;;1.30;;
22774;SDS011;11554;51.106;3.684;2022-07-12T14:45:01;4.20;;;1.30;;
22774;SDS011;11554;51.106;3.684;2022-07-12T14:50:00;3.20;;;1.30;;
22774;SDS011;11554;51.106;3.684;2022-07-12T14:55:00;3.20;;;1.30;;
22774;SDS011;11554;51.106;3.684;2022-07-12T15:00:00;3.00;;;1.20;;
22774;SDS011;11554;51.106;3.684;2022-07-12T15:05:00;3.00;;;1.20;;
22774;SDS011;11554;51.106;3.684;2022-07-12T15:10:00;2.80;;;1.40;;
22774;SDS011;11554;51.106;3.684;2022-07-12T15:15:00;2.80;;;1.40;;
22774;SDS011;11554;51.106;3.684;2022-07-12T15:20:00;2.30;;;1.40;;
22774;SDS011;11554;51.106;3.684;2022-07-12T15:25:01;2.30;;;1.40;;
22774;SDS011;11554;51.106;3.684;2022-07-12T15:30:00;2.30;;;1.30;;
22774;SDS011;11554;51.106;3.684;2022-07-12T15:35:00;2.30;;;1.30;;
22774;SDS011;11554;51.106;3.684;2022-07-12T15:40:00;6.50;;;1.60;;
22774;SDS011;11554;51.106;3.684;2022-07-12T15:45:00;6.50;;;1.60;;
22774;SDS011;11554;51.106;3.684;2022-07-12T15:50:00;2.00;;;1.10;;
22774;SDS011;11554;51.106;3.684;2022-07-12T15:55:00;2.00;;;1.10;;
22774;SDS011;11554;51.106;3.684;2022-07-12T16:00:00;5.50;;;1.70;;
22774;SDS011;11554;51.106;3.684;2022-07-12T16:05:00;5.50;;;1.70;;
22774;SDS011;11554;51.106;3.684;2022-07-12T16:10:00;3.10;;;1.40;;
22774;SDS011;11554;51.106;3.684;2022-07-12T16:15:00;3.10;;;1.40;;
22774;SDS011;11554;51.106;3.684;2022-07-12T16:20:00;3.90;;;1.30;;
22774;SDS011;11554;51.106;3.684;2022-07-12T16:25:00;3.90;;;1.30;;
22774;SDS011;11554;51.106;3.684;2022-07-12T16:30:00;2.70;;;1.10;;
22774;SDS011;11554;51.106;3.684;2022-07-12T16:35:00;2.70;;;1.10;;
22774;SDS011;11554;51.106;3.684;2022-07-12T16:40:00;2.90;;;1.30;;
22774;SDS011;11554;51.106;3.684;2022-07-12T16:45:00;2.90;;;1.30;;
22774;SDS011;11554;51.106;3.684;2022-07-12T16:50:00;1.90;;;1.10;;
22774;SDS011;11554;51.106;3.684;2022-07-12T16:55:01;1.90;;;1.10;;
22774;SDS011;11554;51.106;3.684;2022-07-12T17:00:01;3.40;;;1.20;;
22774;SDS011;11554;51.106;3.684;2022-07-12T17:05:00;3.40;;;1.20;;
22774;SDS011;11554;51.106;3.684;2022-07-12T17:10:00;2.00;;;1.10;;
22774;SDS011;11554;51.106;3.684;2022-07-12T17:15:00;2.00;;;1.10;;
22774;SDS011;11554;51.106;3.684;2022-07-12T17:20:00;4.50;;;1.40;;
22774;SDS011;11554;51.106;3.684;2022-07-12T17:25:00;4.50;;;1.40;;
22774;SDS011;11554;51.106;3.684;2022-07-12T17:30:00;3.50;;;1.20;;
22774;SDS011;11554;51.106;3.684;2022-07-12T17:35:00;3.50;;;1.20;;
22774;SDS011;11554;51.106;3.684;2022-07-12T17:40:00;5.70;;;1.50;;
22774;SDS011;11554;51.106;3.684;2022-07-12T17:45:00;5.70;;;1.50;;
22774;SDS011;11554;51.106;3.684;2022-07-12T17:50:00;6.40;;;1.50;;
22774;SDS011;11554;51.106;3.684;2022-07-12T17:55:00;6.40;;;1.50;;
22774;SDS011;11554;51.106;3.684;2022-07-12T18:00:01;4.70;;;1.40;;
22774;SDS011;11554;51.106;3.684;2022-07-12T18:05:00;4.70;;;1.40;;
22774;SDS011;11554;51.106;3.684;2022-07-12T18:10:00;4.90;;;1.60;;
22774;SDS011;11554;51.106;3.684;2022-07-12T18:15:00;4.90;;;1.60;;
22774;SDS011;11554;51.106;3.684;2022-07-12T18:20:00;2.70;;;1.50;;
22774;SDS011;11554;51.106;3.684;2022-07-12T18:25:00;2.70;;;1.50;;
22774;SDS011;11554;51.106;3.684;2022-07-12T18:30:00;4.70;;;1.70;;
22774;SDS011;11554;51.106;3.684;2022-07-12T18:35:00;4.70;;;1.70;;
22774;SDS011;11554;51.106;3.684;2022-07-12T18:40:00;4.90;;;1.30;;
22774;SDS011;11554;51.106;3.684;2022-07-12T18:45:00;4.90;;;1.30;;
22774;SDS011;11554;51.106;3.684;2022-07-12T18:50:00;3.90;;;1.60;;
22774;SDS011;11554;51.106;3.684;2022-07-12T18:55:00;3.90;;;1.60;;
22774;SDS011;11554;51.106;3.684;2022-07-12T19:00:00;3.20;;;1.60;;
22774;SDS011;11554;51.106;3.684;2022-07-12T19:05:00;3.20;;;1.60;;
22774;SDS011;11554;51.106;3.684;2022-07-12T19:10:00;3.90;;;1.80;;
22774;SDS011;11554;51.106;3.684;2022-07-12T19:15:00;3.90;;;1.80;;
22774;SDS011;11554;51.106;3.684;2022-07-12T19:20:00;5.80;;;1.70;;
22774;SDS011;11554;51.106;3.684;2022-07-12T19:25:00;5.80;;;1.70;;
22774;SDS011;11554;51.106;3.684;2022-07-12T19:30:00;5.30;;;1.90;;
22774;SDS011;11554;51.106;3.684;2022-07-12T19:35:00;5.30;;;1.90;;
22774;SDS011;11554;51.106;3.684;2022-07-12T19:40:00;3.10;;;1.50;;
22774;SDS011;11554;51.106;3.684;2022-07-12T19:45:00;3.10;;;1.50;;
22774;SDS011;11554;51.106;3.684;2022-07-12T19:50:00;5.00;;;1.50;;
22774;SDS011;11554;51.106;3.684;2022-07-12T19:55:00;5.00;;;1.50;;
22774;SDS011;11554;51.106;3.684;2022-07-12T20:00:00;7.10;;;1.60;;
22774;SDS011;11554;51.106;3.684;2022-07-12T20:05:00;7.10;;;1.60;;
22774;SDS011;11554;51.106;3.684;2022-07-12T20:10:00;7.00;;;1.80;;
22774;SDS011;11554;51.106;3.684;2022-07-12T20:15:00;7.00;;;1.80;;
22774;SDS011;11554;51.106;3.684;2022-07-12T20:20:00;6.10;;;1.80;;
22774;SDS011;11554;51.106;3.684;2022-07-12T20:25:00;6.10;;;1.80;;
22774;SDS011;11554;51.106;3.684;2022-07-12T20:30:00;6.70;;;1.80;;
22774;SDS011;11554;51.106;3.684;2022-07-12T20:35:00;6.70;;;1.80;;
22774;SDS011;11554;51.106;3.684;2022-07-12T20:40:00;6.90;;;1.80;;
22774;SDS011;11554;51.106;3.684;2022-07-12T20:45:00;6.90;;;1.80;;
22774;SDS011;11554;51.106;3.684;2022-07-12T20:50:00;4.00;;;1.60;;
22774;SDS011;11554;51.106;3.684;2022-07-12T20:55:00;4.00;;;1.60;;
22774;SDS011;11554;51.106;3.684;2022-07-12T21:00:00;4.10;;;1.80;;
22774;SDS011;11554;51.106;3.684;2022-07-12T21:05:00;4.10;;;1.80;;
22774;SDS011;11554;51.106;3.684;2022-07-12T21:10:00;5.60;;;1.90;;
22774;SDS011;11554;51.106;3.684;2022-07-12T21:15:00;5.60;;;1.90;;
22774;SDS011;11554;51.106;3.684;2022-07-12T21:20:00;4.50;;;1.80;;
22774;SDS011;11554;51.106;3.684;2022-07-12T21:25:00;4.50;;;1.80;;
22774;SDS011;11554;51.106;3.684;2022-07-12T21:30:00;4.50;;;1.90;;
22774;SDS011;11554;51.106;3.684;2022-07-12T21:35:00;4.50;;;1.90;;
22774;SDS011;11554;51.106;3.684;2022-07-12T21:40:00;6.80;;;2.20;;
22774;SDS011;11554;51.106;3.684;2022-07-12T21:45:00;6.80;;;2.20;;
22774;SDS011;11554;51.106;3.684;2022-07-12T21:50:01;6.40;;;2.00;;
22774;SDS011;11554;51.106;3.684;2022-07-12T21:55:00;6.40;;;2.00;;
22774;SDS011;11554;51.106;3.684;2022-07-12T22:00:00;7.80;;;2.60;;
22774;SDS011;11554;51.106;3.684;2022-07-12T22:05:00;7.80;;;2.60;;
22774;SDS011;11554;51.106;3.684;2022-07-12T22:10:00;8.20;;;2.80;;
22774;SDS011;11554;51.106;3.684;2022-07-12T22:15:00;8.20;;;2.80;;
22774;SDS011;11554;51.106;3.684;2022-07-12T22:20:00;4.20;;;2.10;;
22774;SDS011;11554;51.106;3.684;2022-07-12T22:25:00;4.20;;;2.10;;
22774;SDS011;11554;51.106;3.684;2022-07-12T22:30:00;5.20;;;2.50;;
22774;SDS011;11554;51.106;3.684;2022-07-12T22:35:00;5.20;;;2.50;;
22774;SDS011;11554;51.106;3.684;2022-07-12T22:40:00;4.40;;;2.30;;
22774;SDS011;11554;51.106;3.684;2022-07-12T22:45:00;4.40;;;2.30;;
22774;SDS011;11554;51.106;3.684;2022-07-12T22:50:00;5.70;;;2.20;;
22774;SDS011;11554;51.106;3.684;2022-07-12T22:55:00;5.70;;;2.20;;
22774;SDS011;11554;51.106;3.684;2022-07-12T23:00:00;3.60;;;2.10;;
22774;SDS011;11554;51.106;3.684;2022-07-12T23:05:00;3.60;;;2.10;;
22774;SDS011;11554;51.106;3.684;2022-07-12T23:10:00;5.80;;;2.10;;
22774;SDS011;11554;51.106;3.684;2022-07-12T23:15:00;5.80;;;2.10;;
22774;SDS011;11554;51.106;3.684;2022-07-12T23:20:00;4.80;;;2.40;;
22774;SDS011;11554;51.106;3.684;2022-07-12T23:25:00;4.80;;;2.40;;
22774;SDS011;11554;51.106;3.684;2022-07-12T23:30:00;4.50;;;2.20;;
22774;SDS011;11554;51.106;3.684;2022-07-12T23:35:00;4.50;;;2.20;;
22774;SDS011;11554;51.106;3.684;2022-07-12T23:40:00;6.10;;;2.30;;
22774;SDS011;11554;51.106;3.684;2022-07-12T23:45:00;6.10;;;2.30;;
22774;SDS011;11554;51.106;3.684;2022-07-12T23:50:00;5.40;;;1.90;;
22774;SDS011;11554;51.106;3.684;2022-07-12T23:55:00;5.40;;;1.90;;
